Weather reports worldwide

Advertisment
La Molina, Spain (8117): temperature & dewpoint: 08.12.2018 00:00:00 - 14.12.2018 00:00:00 (CET)La Molina, Spain (8117): wind speed & gusts: 08.12.2018 00:00:00 - 14.12.2018 00:00:00 (CET)La Molina, Spain (8117): wind direction: 08.12.2018 00:00:00 - 14.12.2018 00:00:00 (CET)La Molina, Spain (8117): visibility: 08.12.2018 00:00:00 - 14.12.2018 00:00:00 (CET)La Molina, Spain (8117): sunshine duration: 08.12.2018 00:00:00 - 14.12.2018 00:00:00 (CET)La Molina, Spain (8117): precipitation: 08.12.2018 00:00:00 - 14.12.2018 00:00:00 (CET)
Date & Time tt [°C] td [°C] ff [km/h] ff [kn] fx [km/h] fx [kn] dd vv [km] sd [min] rr [mm]
14.12.2018 00:00:00 0,5 -2,5 4 2 12 6 SE 20 0 0,0
13.12.2018 23:00:00 0,5 -2,0 4 2 13 7 SSW 20 0 0,0
13.12.2018 22:00:00 0,5 -1,7 3 2 15 8 SSW 20 0 0,0
13.12.2018 21:00:00 0,4 -1,0 3 2 11 6 S 20 0 0,0
13.12.2018 20:00:00 0,4 -0,5 5 3 13 7 WSW 20 0 0,0
13.12.2018 19:00:00 0,2 -0,3 5 3 9 5 SW 20 0 -
13.12.2018 18:00:00 0,2 -0,3 4 2 14 8 NNW 18 0 0,0
13.12.2018 17:00:00 0,2 -0,3 4 2 12 7 W 9 0 0,0
13.12.2018 16:00:00 0,5 0,0 4 2 9 5 W 12 0 0,0
13.12.2018 15:00:00 0,4 -0,3 1 1 5 3 NE 0,5 0 0,2
13.12.2018 14:00:00 0,4 -0,3 1 1 5 3 E 1,2 0 0,8
13.12.2018 13:00:00 0,3 0,0 1 1 6 3 W 0,1 0 -
13.12.2018 12:00:00 1,0 0,2 2 1 7 4 NNW 0,9 0 0,4
13.12.2018 11:00:00 1,9 0,2 5 3 10 6 WNW 16 0 0,0
13.12.2018 10:00:00 1,2 -0,5 6 4 10 6 SSW 20 0 0,0
13.12.2018 09:00:00 0,2 -0,3 2 1 10 6 ENE 18 0 0,0
13.12.2018 08:00:00 0,1 -0,3 2 1 7 4 ENE 10 0 0,0
13.12.2018 07:00:00 0,1 0,0 2 1 10 5 N 6 0 -
13.12.2018 06:00:00 0,3 0,2 4 2 9 5 ENE 0,4 0 0,0
13.12.2018 05:00:00 0,3 0,0 3 2 10 5 NNE 0,1 0 0,0
13.12.2018 04:00:00 0,6 0,0 3 1 12 6 NNW 17 0 0,0
13.12.2018 03:00:00 0,4 -0,5 4 2 10 6 NNE 20 0 0,0
13.12.2018 02:00:00 0,8 -0,7 4 2 11 6 S 20 0 0,0
13.12.2018 01:00:00 0,8 -0,7 6 3 12 7 E 20 0 -
13.12.2018 00:00:00 0,8 -1,0 4 2 13 7 S 20 0 0,0
12.12.2018 23:00:00 0,8 -1,4 5 3 9 5 ESE 20 0 0,0
12.12.2018 22:00:00 0,6 -1,7 4 2 17 9 SSW 20 0 0,0
12.12.2018 21:00:00 1,4 -1,7 4 2 17 9 S 20 0 0,0
12.12.2018 20:00:00 1,4 -1,7 4 2 15 8 E 20 0 0,0
12.12.2018 19:00:00 2,2 -1,2 6 3 13 7 E 20 0 -
12.12.2018 18:00:00 2,6 -0,8 3 2 7 4 SE 20 0 0,0
12.12.2018 17:00:00 4,2 -1,4 4 2 11 6 SSW 20 0 0,0
12.12.2018 16:00:00 5,7 -2,4 5 3 22 12 W 20 13 0,0
12.12.2018 15:00:00 7,0 -3,9 13 7 24 13 SSW 20 43 0,0
12.12.2018 14:00:00 7,0 -3,9 6 3 15 8 NW 20 28 0,0
12.12.2018 13:00:00 - - - - - - - - - -
12.12.2018 12:00:00 4,0 -4,5 5 3 8 4 SSE 20 50 0,0
12.12.2018 11:00:00 4,1 -4,8 4 2 11 6 SE 20 29 0,0
12.12.2018 10:00:00 1,8 -5,4 6 3 8 5 S 20 0 0,0
12.12.2018 09:00:00 2,3 -5,7 7 4 13 7 SW 20 0 0,0
12.12.2018 08:00:00 1,0 -5,7 6 4 14 8 SSE 20 0 0,0
12.12.2018 07:00:00 3,4 -5,4 8 5 16 9 SSW 20 0 -
12.12.2018 06:00:00 3,0 -4,5 7 4 12 6 SSW 20 0 0,0
12.12.2018 05:00:00 3,0 -4,2 6 3 14 8 S 20 0 0,0
12.12.2018 04:00:00 3,2 -4,2 6 4 14 7 SSW 20 0 0,0
12.12.2018 03:00:00 2,6 -4,8 9 5 15 8 SSW 20 0 0,0
12.12.2018 02:00:00 1,9 -4,8 6 4 11 6 S 20 0 0,0
12.12.2018 01:00:00 2,4 -5,4 5 3 9 5 SSE 20 0 -
12.12.2018 00:00:00 2,4 -5,1 7 4 11 6 SSW 20 0 0,0
11.12.2018 23:00:00 2,5 -5,1 4 2 9 5 SSE 20 0 0,0
11.12.2018 22:00:00 2,9 -5,1 5 3 11 6 SSE 20 0 0,0
11.12.2018 21:00:00 3,5 -5,1 8 4 13 7 S 20 0 0,0
11.12.2018 20:00:00 3,5 -4,8 4 2 15 8 SSE 20 0 0,0
11.12.2018 19:00:00 3,0 -4,5 7 4 13 7 S 20 0 -
11.12.2018 18:00:00 3,1 -3,9 8 4 11 6 SSW 20 0 0,0
11.12.2018 17:00:00 3,9 -3,1 4 2 9 5 ESE 20 0 0,0
11.12.2018 16:00:00 6,4 -2,4 4 2 9 5 SE 20 56 0,0
11.12.2018 15:00:00 8,1 -2,0 4 2 9 5 ESE 20 60 0,0
11.12.2018 14:00:00 8,1 -1,7 4 2 9 5 ESE 20 60 0,0
11.12.2018 13:00:00 5,3 -2,0 4 2 7 4 S 20 15 -
11.12.2018 12:00:00 4,9 -3,0 3 2 7 4 SSE 20 52 0,0
11.12.2018 11:00:00 5,0 -2,7 5 3 10 5 SE 20 32 0,0
11.12.2018 10:00:00 2,7 -3,6 4 2 11 6 SE 20 0 0,0
11.12.2018 09:00:00 2,6 -4,2 3 2 10 5 ESE 20 0 0,0
11.12.2018 08:00:00 2,2 -4,2 5 3 10 6 SE 20 0 0,0
11.12.2018 07:00:00 2,4 -4,8 6 3 9 5 E 20 0 -
11.12.2018 06:00:00 2,4 -3,9 7 4 11 6 SSE 20 0 0,0
11.12.2018 05:00:00 2,1 -4,5 6 3 14 8 S 20 0 0,0
11.12.2018 04:00:00 2,4 -5,1 7 4 13 7 SSW 20 0 0,0
11.12.2018 03:00:00 2,2 -5,7 6 4 10 5 S 20 0 0,0
11.12.2018 02:00:00 2,3 -7,5 4 2 16 9 SSE 20 0 0,0
11.12.2018 01:00:00 1,8 -9,9 8 4 13 7 SSW 20 0 -
11.12.2018 00:00:00 2,9 -10,3 5 3 16 8 SSE 20 0 0,0
10.12.2018 23:00:00 2,1 -10,3 6 3 14 7 SSE 20 0 0,0
10.12.2018 22:00:00 1,5 -10,8 7 4 11 6 S 20 0 0,0
10.12.2018 21:00:00 3,2 -13,3 7 4 14 8 S 20 0 0,0
10.12.2018 20:00:00 3,6 -13,9 10 6 18 10 SW 20 0 0,0
10.12.2018 19:00:00 2,8 -11,2 6 3 15 8 SSW 20 0 -
10.12.2018 18:00:00 3,7 -10,8 6 4 18 10 SSW 20 0 0,0
10.12.2018 17:00:00 5,3 -11,2 6 4 21 11 WSW 20 0 0,0
10.12.2018 16:00:00 7,5 -11,2 6 3 19 11 WSW 20 55 0,0
10.12.2018 15:00:00 8,8 -14,5 9 5 18 10 NW 20 60 0,0
10.12.2018 14:00:00 8,2 -17,2 7 4 13 7 NW 20 60 0,0
10.12.2018 13:00:00 6,5 -13,9 5 3 17 9 WSW 20 18 -
10.12.2018 12:00:00 5,3 -16,5 8 5 16 9 SSW 20 0 0,0
10.12.2018 11:00:00 4,0 -17,2 8 5 18 10 SSW 20 0 0,0
10.12.2018 10:00:00 2,6 -15,8 3 1 12 6 S 20 0 0,0
10.12.2018 09:00:00 2,7 -13,9 5 3 13 7 S 20 0 0,0
10.12.2018 08:00:00 4,0 -17,2 8 5 32 18 W 20 0 0,0
10.12.2018 07:00:00 4,3 -16,5 11 6 41 22 SW 20 0 -
10.12.2018 06:00:00 4,2 -18,0 9 5 31 17 WSW 20 0 0,0
10.12.2018 05:00:00 5,1 -16,5 9 5 35 19 W 20 0 0,0
10.12.2018 04:00:00 5,7 -17,2 14 8 37 20 NW 20 0 0,0
10.12.2018 03:00:00 4,7 -15,8 13 7 27 15 SW 20 0 0,0
10.12.2018 02:00:00 4,5 -13,9 12 7 31 17 WSW 20 0 0,0
10.12.2018 01:00:00 4,1 -11,7 8 5 44 24 WSW 20 0 -
10.12.2018 00:00:00 4,8 -12,8 8 4 51 28 W 20 0 0,0
09.12.2018 23:00:00 5,1 -13,3 16 9 52 28 NNW 20 0 0,0
09.12.2018 22:00:00 4,2 -11,2 18 10 50 27 NNW 20 0 0,0
09.12.2018 21:00:00 4,5 -8,6 23 12 56 31 N 20 0 0,0
09.12.2018 20:00:00 4,8 -7,8 15 8 40 22 N 20 0 0,0
09.12.2018 19:00:00 6,2 -9,0 11 6 32 18 N 20 0 -
09.12.2018 18:00:00 6,0 -11,7 4 2 16 9 SW 20 0 0,0
09.12.2018 17:00:00 8,1 -11,2 3 2 26 14 SW 20 0 0,0
09.12.2018 16:00:00 11,0 -13,3 9 5 31 17 WNW 20 56 0,0
09.12.2018 15:00:00 11,9 -12,2 14 7 40 21 W 20 60 0,0
09.12.2018 14:00:00 11,8 -12,8 18 10 35 19 WNW 20 60 0,0
09.12.2018 13:00:00 11,1 -13,3 16 9 40 22 W 20 32 -
09.12.2018 12:00:00 10,0 -13,9 14 8 33 18 WSW 20 59 0,0
09.12.2018 11:00:00 8,1 -12,8 6 3 21 11 WSW 20 35 0,0
09.12.2018 10:00:00 3,7 -7,8 6 3 13 7 SE 20 0 0,0
09.12.2018 09:00:00 3,3 -7,8 8 4 11 6 SE 20 0 0,0
09.12.2018 08:00:00 3,4 -7,8 5 3 11 6 SSE 20 0 0,0
09.12.2018 07:00:00 4,0 -6,7 7 4 15 8 SE 20 0 -
09.12.2018 06:00:00 3,4 -5,4 6 4 13 7 SE 20 0 0,0
09.12.2018 05:00:00 3,0 -3,6 6 3 11 6 S 20 0 0,0
09.12.2018 04:00:00 3,6 -3,6 8 4 14 7 ESE 20 0 0,0
09.12.2018 03:00:00 3,7 -2,5 7 4 14 7 S 20 0 0,0
09.12.2018 02:00:00 4,2 -0,5 4 2 10 6 SSE 20 0 0,0
09.12.2018 01:00:00 3,9 -1,0 4 2 8 4 S 20 0 -
09.12.2018 00:00:00 3,9 -1,2 6 3 13 7 S 20 0 0,0
08.12.2018 23:00:00 4,3 -1,2 6 4 12 6 ESE 20 0 0,0
08.12.2018 22:00:00 4,0 -1,7 6 3 11 6 ESE 20 0 0,0
08.12.2018 21:00:00 4,5 -1,7 8 5 14 8 ESE 20 0 0,0
08.12.2018 20:00:00 4,6 -2,5 8 4 17 9 ESE 20 0 0,0
08.12.2018 19:00:00 4,3 -2,0 7 4 16 9 S 20 0 -
08.12.2018 18:00:00 3,5 -5,7 7 4 14 7 E 20 0 0,0
08.12.2018 17:00:00 2,7 -6,0 5 3 9 5 SE 20 0 0,0
08.12.2018 16:00:00 4,3 -6,0 5 3 13 7 S 20 56 0,0
08.12.2018 15:00:00 5,4 -6,0 4 2 10 5 NE 20 60 0,0
08.12.2018 14:00:00 4,6 -4,8 4 2 8 4 SSE 20 60 0,0
08.12.2018 13:00:00 2,8 -5,5 3 2 6 3 SSE 20 36 -
08.12.2018 12:00:00 2,2 -6,0 3 2 11 6 SSE 20 60 0,0
08.12.2018 11:00:00 2,6 -6,4 3 2 15 8 SSE 20 37 0,0
08.12.2018 10:00:00 0,2 -7,5 7 4 13 7 SSW 19 0 0,0
08.12.2018 09:00:00 -0,9 -5,4 5 3 22 12 SSW 11 0 0,0
08.12.2018 08:00:00 -1,3 -6,0 9 5 14 8 SSW 8 0 0,0
08.12.2018 07:00:00 -1,4 -6,0 3 2 16 9 S 20 0 -
08.12.2018 06:00:00 -1,4 -5,1 5 3 13 7 SSE 20 0 0,0
08.12.2018 05:00:00 -0,4 -4,2 6 4 15 8 ESE 20 0 0,0
08.12.2018 04:00:00 0,0 -3,9 6 4 14 7 ESE 20 0 0,0
08.12.2018 03:00:00 0,8 -3,0 5 3 13 7 E 20 0 0,0
08.12.2018 02:00:00 0,9 -2,7 5 3 11 6 ESE 20 0 0,0
08.12.2018 01:00:00 1,4 -2,5 4 2 13 7 S 20 0 -
08.12.2018 00:00:00 2,9 -1,2 9 5 17 9 SSW 20 0 0,0

tt = temperature
td = dewpoint
ff = wind speed
fx = gusts
dd = wind direction
vv = visibility
sd = sunshine duration
rr = precipitation

Next stations